Terminal Aerodrome Forecast
Issued by NWS Mt. Holly, NJ

Home | Current Version | Previous Version | Text Only | Print | Product List | Glossary On
Versions: 1 2 3 4 5 6 7 8 9 10 11 12 13 14 15 16 17 18 19 20 21 22 23 24 25
000
FTUS41 KPHI 171403 AAA
TAFTTN
TAF AMD
KTTN 171403Z 1714/1812 VRB03KT P6SM OVC015
     FM171700 13004KT 5SM -RA BR OVC009
     FM172300 VRB03KT 2SM -DZ BR OVC005
      TEMPO 1804/1808 3/4SM BR OVC003
     FM180900 36003KT 1SM BR OVC003=

USA.gov is the U.S. government's official web portal to all federal, state and local government web resources and services.